Time;durP1;ratioP1;P1;durP2;ratioP2;P2;SDS_P1;SDS_P2;PMS_P1;PMS_P2;Temp;Humidity;BMP_temperature;BMP_pressure;BME280_temperature;BME280_humidity;BME280_pressure;Samples;Min_cycle;Max_cycle;Signal;HPM_P1;HPM_P2
2021/08/29 00:00:09;;;;;;;;;;;;;;;21.57;63.92;102405.88;7287374;19;151938;-50
2021/08/29 00:02:36;;;;;;;;;;;;;;;21.57;64.17;102408.69;7287864;19;151852;-50
2021/08/29 00:05:03;;;;;;;;;;;;;;;21.57;63.98;102403.91;7286505;19;154090;-50
2021/08/29 00:07:30;;;;;;;;;;;;;;;21.57;64.00;102411.50;7287133;19;151915;-49
2021/08/29 00:09:57;;;;;;;;;;;;;;;21.57;64.01;102417.13;7285817;19;152368;-50
2021/08/29 00:12:25;;;;;;;;;;;;;;;21.58;64.31;102408.38;7288602;19;155124;-49
2021/08/29 00:14:52;;;;;;;;;;;;;;;21.58;64.03;102408.38;7293255;19;152186;-49
2021/08/29 00:17:18;;;;;;;;;;;;;;;21.58;63.82;102416.81;7285966;19;152976;-50
2021/08/29 00:19:45;;;;;;;;;;;;;;;21.58;64.23;102405.56;7285679;19;151574;-50
2021/08/29 00:22:12;;;;;;;;;;;;;;;21.59;64.18;102404.47;7286731;19;153661;-50
2021/08/29 00:24:39;;;;;;;;;;;;;;;21.58;63.89;102399.94;7284578;19;153532;-50
2021/08/29 00:27:06;;;;;;;;;;;;;;;21.59;64.12;102400.78;7286911;19;151744;-50
2021/08/29 00:29:33;;;;;;;;;;;;;;;21.59;64.13;102403.59;7287497;19;153609;-49
2021/08/29 00:31:59;;;;;;;;;;;;;;;21.60;64.29;102394.91;7284719;19;153204;-50
2021/08/29 00:34:26;;;;;;;;;;;;;;;21.58;64.14;102393.47;7287945;19;152045;-49
2021/08/29 00:36:53;;;;;;;;;;;;;;;21.60;64.36;102394.91;7292690;19;152503;-49
2021/08/29 00:39:20;;;;;;;;;;;;;;;21.59;64.29;102401.66;7283812;19;152235;-50
2021/08/29 00:41:47;;;;;;;;;;;;;;;21.59;64.81;102398.84;7286054;19;153276;-49
2021/08/29 00:44:17;;;;;;;;;;;;;;;21.59;64.46;102393.22;7284009;19;153587;-50
2021/08/29 00:46:45;;;;;;;;;;;;;;;21.59;64.49;102392.34;7285907;19;152096;-49
2021/08/29 00:49:18;;;;;;;;;;;;;;;21.61;64.27;102392.94;7286375;19;153150;-50
2021/08/29 00:51:59;;;;;;;;;;;;;;;21.61;64.61;102387.31;7284351;19;153921;-50
2021/08/29 00:54:29;;;;;;;;;;;;;;;21.61;64.92;102396.59;7287915;19;152329;-50
2021/08/29 00:56:56;;;;;;;;;;;;;;;21.60;65.11;102388.44;7284380;19;153560;-50
2021/08/29 00:59:28;;;;;;;;;;;;;;;21.61;64.81;102382.53;7288376;19;152664;-50
2021/08/29 01:01:58;;;;;;;;;;;;;;;21.60;64.86;102383.66;7285519;19;152571;-50
2021/08/29 01:04:31;;;;;;;;;;;;;;;21.61;65.09;102384.50;7282807;19;153967;-50
2021/08/29 01:07:02;;;;;;;;;;;;;;;21.62;64.78;102377.75;7284124;19;152067;-50
2021/08/29 01:09:29;;;;;;;;;;;;;;;21.61;64.70;102376.06;7284529;19;152682;-50
2021/08/29 01:11:57;;;;;;;;;;;;;;;21.60;65.14;102378.03;7282355;19;153744;-50
2021/08/29 01:14:25;;;;;;;;;;;;;;;21.60;64.75;102377.19;7283041;19;151988;-49
2021/08/29 01:16:54;;;;;;;;;;;;;;;21.61;65.01;102373.25;7285661;19;152160;-49
2021/08/29 01:19:25;;;;;;;;;;;;;;;21.61;64.97;102379.72;7277073;19;154347;-50
2021/08/29 01:21:53;;;;;;;;;;;;;;;21.61;65.15;102379.72;7290146;19;151688;-50
2021/08/29 01:24:21;;;;;;;;;;;;;;;21.62;65.10;102377.75;7283046;19;152638;-50
2021/08/29 01:26:54;;;;;;;;;;;;;;;21.62;65.19;102381.38;7283339;19;151738;-50
2021/08/29 01:29:23;;;;;;;;;;;;;;;21.60;65.18;102383.66;7278352;19;153524;-50
2021/08/29 01:31:50;;;;;;;;;;;;;;;21.62;64.92;102387.00;7281201;19;153338;-50
2021/08/29 01:34:18;;;;;;;;;;;;;;;21.61;65.01;102374.09;7283006;19;151693;-50
2021/08/29 01:36:47;;;;;;;;;;;;;;;21.63;65.31;102374.63;7281809;19;152697;-49
2021/08/29 01:39:13;;;;;;;;;;;;;;;21.63;65.00;102370.97;7281417;19;154053;-50
2021/08/29 01:41:42;;;;;;;;;;;;;;;21.63;65.40;102370.97;7279839;19;152466;-50
2021/08/29 01:44:09;;;;;;;;;;;;;;;21.63;65.35;102376.59;7291107;19;152006;-49
2021/08/29 01:46:36;;;;;;;;;;;;;;;21.63;65.36;102374.63;7279714;19;151814;-50
2021/08/29 01:49:04;;;;;;;;;;;;;;;21.64;65.01;102376.34;7281123;19;152571;-50
2021/08/29 01:51:31;;;;;;;;;;;;;;;21.63;65.17;102377.44;7284659;19;153845;-50
2021/08/29 01:53:57;;;;;;;;;;;;;;;21.64;65.50;102378.31;7283649;19;153801;-50
2021/08/29 01:56:24;;;;;;;;;;;;;;;21.62;65.34;102366.50;7284485;19;153930;-49
2021/08/29 01:58:51;;;;;;;;;;;;;;;21.62;65.54;102374.94;7281167;19;152231;-50
2021/08/29 02:01:18;;;;;;;;;;;;;;;21.61;65.06;102368.47;7284430;19;151772;-50
2021/08/29 02:03:45;;;;;;;;;;;;;;;21.62;65.04;102361.69;7288875;19;153552;-49
2021/08/29 02:06:13;;;;;;;;;;;;;;;21.61;65.48;102368.47;7284226;19;151778;-50
2021/08/29 02:08:44;;;;;;;;;;;;;;;21.61;65.08;102371.28;7287366;19;153870;-50
2021/08/29 02:11:11;;;;;;;;;;;;;;;21.61;65.31;102367.63;7289567;19;154086;-50
2021/08/29 02:13:40;;;;;;;;;;;;;;;21.61;65.85;102368.47;7290913;19;152008;-49
2021/08/29 02:16:13;;;;;;;;;;;;;;;21.61;65.52;102374.09;7289679;19;153160;-50
2021/08/29 02:18:42;;;;;;;;;;;;;;;21.63;65.64;102370.97;7285987;19;153304;-50
2021/08/29 02:21:09;;;;;;;;;;;;;;;21.61;65.59;102376.06;7289696;19;152377;-50
2021/08/29 02:23:36;;;;;;;;;;;;;;;21.61;65.38;102385.34;7288300;19;153524;-50
2021/08/29 02:26:03;;;;;;;;;;;;;;;21.61;65.47;102379.72;7296352;19;153482;-50
2021/08/29 02:28:30;;;;;;;;;;;;;;;21.61;65.27;102374.09;7287266;19;152018;-50
2021/08/29 02:30:57;;;;;;;;;;;;;;;21.62;65.39;102375.75;7287566;19;154001;-50
2021/08/29 02:33:24;;;;;;;;;;;;;;;21.62;65.19;102367.31;7286486;19;151956;-50
2021/08/29 02:35:51;;;;;;;;;;;;;;;21.61;65.13;102371.28;7287740;19;153055;-49
2021/08/29 02:38:19;;;;;;;;;;;;;;;21.62;64.96;102363.69;7286575;19;154457;-49
2021/08/29 02:40:47;;;;;;;;;;;;;;;21.61;65.26;102374.09;7287116;19;151745;-50
2021/08/29 02:43:15;;;;;;;;;;;;;;;21.61;65.03;102362.00;7285009;19;152676;-50
2021/08/29 02:45:42;;;;;;;;;;;;;;;21.60;65.25;102363.13;7288484;19;153420;-50
2021/08/29 02:48:10;;;;;;;;;;;;;;;21.59;65.55;102362.25;7297570;19;152100;-50
2021/08/29 02:50:38;;;;;;;;;;;;;;;21.59;65.06;102353.81;7282246;19;152996;-49
2021/08/29 02:53:05;;;;;;;;;;;;;;;21.60;65.34;102357.50;7287181;19;151672;-50
2021/08/29 02:55:32;;;;;;;;;;;;;;;21.59;65.28;102355.78;7286623;19;152188;-49
2021/08/29 02:58:04;;;;;;;;;;;;;;;21.60;65.19;102360.31;7287425;19;154103;-50
2021/08/29 03:00:31;;;;;;;;;;;;;;;21.60;65.19;102352.72;7288889;19;151770;-49
2021/08/29 03:02:58;;;;;;;;;;;;;;;21.60;65.56;102358.34;7290061;19;152768;-50
2021/08/29 03:05:26;;;;;;;;;;;;;;;21.57;65.23;102346.81;7285414;19;153642;-49
2021/08/29 03:07:52;;;;;;;;;;;;;;;21.59;65.62;102351.03;7289554;19;151767;-50
2021/08/29 03:10:19;;;;;;;;;;;;;;;21.59;65.55;102351.03;7292215;19;152962;-50
2021/08/29 03:12:47;;;;;;;;;;;;;;;21.59;65.19;102345.38;7290912;19;151919;-50
2021/08/29 03:15:14;;;;;;;;;;;;;;;21.60;65.41;102346.25;7287920;19;153163;-50
2021/08/29 03:17:41;;;;;;;;;;;;;;;21.58;65.45;102352.13;7288024;19;154584;-49
2021/08/29 03:20:08;;;;;;;;;;;;;;;21.58;65.38;102346.50;7284990;19;151815;-50
2021/08/29 03:22:36;;;;;;;;;;;;;;;21.56;65.88;102340.34;7287194;19;151906;-49
2021/08/29 03:25:03;;;;;;;;;;;;;;;21.55;65.56;102347.09;7287085;19;153230;-50
2021/08/29 03:27:30;;;;;;;;;;;;;;;21.58;65.90;102354.94;7286990;19;151753;-50
2021/08/29 03:29:57;;;;;;;;;;;;;;;21.59;65.66;102353.81;7288657;19;151699;-50
2021/08/29 03:32:24;;;;;;;;;;;;;;;21.58;65.55;102348.47;7293772;19;153987;-49
2021/08/29 03:34:51;;;;;;;;;;;;;;;21.57;65.69;102347.66;7288422;19;152235;-50
2021/08/29 03:37:19;;;;;;;;;;;;;;;21.58;65.67;102340.88;7287415;19;154810;-49
2021/08/29 03:39:45;;;;;;;;;;;;;;;21.57;65.68;102341.19;7284083;19;151553;-50
2021/08/29 03:42:14;;;;;;;;;;;;;;;21.59;66.01;102336.09;7289381;19;153461;-50
2021/08/29 03:44:40;;;;;;;;;;;;;;;21.60;65.90;102343.44;7285311;19;154101;-49
2021/08/29 03:47:07;;;;;;;;;;;;;;;21.58;65.92;102346.50;7286557;19;151770;-49
2021/08/29 03:49:34;;;;;;;;;;;;;;;21.58;65.81;102346.50;7286533;19;153480;-50
2021/08/29 03:52:01;;;;;;;;;;;;;;;21.56;65.70;102337.53;7287288;19;153806;-50
2021/08/29 03:54:28;;;;;;;;;;;;;;;21.58;65.45;102343.69;7294155;19;151861;-50
2021/08/29 03:59:23;;;;;;;;;;;;;;;21.59;65.55;102336.09;7284453;19;151775;-49
2021/08/29 04:01:49;;;;;;;;;;;;;;;21.61;65.94;102331.06;7284417;19;152058;-49
2021/08/29 04:04:17;;;;;;;;;;;;;;;21.61;65.72;102331.06;7288212;19;153317;-49
2021/08/29 04:06:45;;;;;;;;;;;;;;;21.58;65.87;102326.81;7286606;19;151945;-50
2021/08/29 04:09:12;;;;;;;;;;;;;;;21.58;66.09;102324.00;7286632;19;153310;-50
2021/08/29 04:11:42;;;;;;;;;;;;;;;21.56;66.09;102323.47;7283481;19;153365;-50
2021/08/29 04:14:12;;;;;;;;;;;;;;;21.59;65.66;102322.88;7293404;19;151923;-50
2021/08/29 04:16:39;;;;;;;;;;;;;;;21.59;66.19;102307.97;7282254;19;153953;-50
2021/08/29 04:19:07;;;;;;;;;;;;;;;21.59;65.96;102319.22;7286462;19;151920;-50
2021/08/29 04:21:34;;;;;;;;;;;;;;;21.59;65.68;102311.63;7286917;19;153358;-50
2021/08/29 04:24:01;;;;;;;;;;;;;;;21.58;66.15;102312.75;7284293;19;154181;-49
2021/08/29 04:26:27;;;;;;;;;;;;;;;21.57;66.07;102301.81;7285108;19;152141;-50
2021/08/29 04:28:54;;;;;;;;;;;;;;;21.56;65.99;102312.22;7284897;19;153458;-50
2021/08/29 04:31:23;;;;;;;;;;;;;;;21.56;65.90;102309.41;7281528;19;153195;-49
2021/08/29 04:33:53;;;;;;;;;;;;;;;21.57;65.78;102308.28;7286821;19;152780;-49
2021/08/29 04:36:20;;;;;;;;;;;;;;;21.60;65.74;102312.47;7289789;19;152119;-49
2021/08/29 04:38:47;;;;;;;;;;;;;;;21.56;65.61;102303.78;7285021;19;151827;-50
2021/08/29 04:41:14;;;;;;;;;;;;;;;21.59;65.60;102308.81;7283021;19;152539;-51
2021/08/29 04:43:40;;;;;;;;;;;;;;;21.58;65.87;102312.75;7281451;19;153870;-50
2021/08/29 04:46:07;;;;;;;;;;;;;;;21.55;65.78;102302.09;7283758;19;151720;-50
2021/08/29 04:48:34;;;;;;;;;;;;;;;21.56;65.67;102315.03;7287642;19;153766;-50
2021/08/29 04:51:01;;;;;;;;;;;;;;;21.58;65.68;102300.66;7283677;19;153262;-50
2021/08/29 04:53:27;;;;;;;;;;;;;;;21.57;65.74;102310.25;7283347;19;152045;-50
2021/08/29 04:55:54;;;;;;;;;;;;;;;21.55;65.78;102312.47;7286616;19;152910;-50
2021/08/29 04:58:21;;;;;;;;;;;;;;;21.54;65.73;102311.63;7292209;19;153301;-50
2021/08/29 05:00:48;;;;;;;;;;;;;;;21.54;65.92;102316.41;7283466;19;152629;-50
2021/08/29 05:03:15;;;;;;;;;;;;;;;21.52;65.70;102313.91;7284137;19;153197;-50
2021/08/29 05:05:42;;;;;;;;;;;;;;;21.52;65.88;102315.88;7286344;19;153762;-49
2021/08/29 05:08:09;;;;;;;;;;;;;;;21.54;65.97;102316.41;7287079;19;153335;-50
2021/08/29 05:10:35;;;;;;;;;;;;;;;21.52;65.78;102327.97;7283749;19;154234;-50
2021/08/29 05:13:02;;;;;;;;;;;;;;;21.53;66.21;102318.38;7283484;19;151754;-50
2021/08/29 05:15:29;;;;;;;;;;;;;;;21.53;65.71;102326.00;7282109;19;152861;-50
2021/08/29 05:17:56;;;;;;;;;;;;;;;21.54;66.09;102324.84;7285001;19;153784;-50
2021/08/29 05:20:23;;;;;;;;;;;;;;;21.52;65.97;102325.16;7289156;19;151632;-50
2021/08/29 05:22:50;;;;;;;;;;;;;;;21.52;65.79;102329.94;7285234;19;153262;-50
2021/08/29 05:25:17;;;;;;;;;;;;;;;21.52;66.11;102324.31;7283357;19;151883;-50
2021/08/29 05:27:44;;;;;;;;;;;;;;;21.52;65.91;102327.97;7286270;19;152646;-50
2021/08/29 05:30:11;;;;;;;;;;;;;;;21.52;65.61;102335.56;7283488;19;153641;-50
2021/08/29 05:32:37;;;;;;;;;;;;;;;21.52;65.77;102335.56;7282936;19;151892;-50
2021/08/29 05:35:04;;;;;;;;;;;;;;;21.52;65.63;102335.56;7284422;19;152459;-50
2021/08/29 05:37:31;;;;;;;;;;;;;;;21.51;65.89;102328.25;7282748;19;152640;-50
2021/08/29 05:39:58;;;;;;;;;;;;;;;21.50;65.63;102341.47;7283854;19;155898;-50
2021/08/29 05:42:25;;;;;;;;;;;;;;;21.50;65.62;102332.16;7290008;19;152225;-50
2021/08/29 05:44:51;;;;;;;;;;;;;;;21.51;65.90;102337.53;7283410;19;151912;-50
2021/08/29 05:47:18;;;;;;;;;;;;;;;21.49;66.00;102325.69;7283586;19;153697;-50
2021/08/29 05:49:45;;;;;;;;;;;;;;;21.49;65.58;102325.69;7281567;19;153157;-50
2021/08/29 05:52:12;;;;;;;;;;;;;;;21.49;65.74;102320.06;7284734;19;152053;-50
2021/08/29 05:54:38;;;;;;;;;;;;;;;21.50;65.42;102329.34;7283148;19;152089;-50
2021/08/29 05:57:05;;;;;;;;;;;;;;;21.48;65.52;102329.66;7281349;19;153219;-50
2021/08/29 05:59:32;;;;;;;;;;;;;;;21.48;66.01;102326.84;7283920;19;151679;-50
2021/08/29 06:01:59;;;;;;;;;;;;;;;21.51;65.80;102326.28;7282666;19;152485;-50
2021/08/29 06:04:26;;;;;;;;;;;;;;;21.49;65.63;102320.06;7287710;19;153197;-50
2021/08/29 06:06:53;;;;;;;;;;;;;;;21.49;65.74;102322.88;7282649;19;153379;-50
2021/08/29 06:09:19;;;;;;;;;;;;;;;21.48;65.67;102329.66;7283077;19;152714;-50
2021/08/29 06:11:46;;;;;;;;;;;;;;;21.47;65.83;102322.34;7282524;19;152212;-50
2021/08/29 06:14:13;;;;;;;;;;;;;;;21.47;65.92;102319.53;7281427;19;152549;-49
2021/08/29 06:16:40;;;;;;;;;;;;;;;21.47;65.56;102322.34;7281890;19;152220;-49
2021/08/29 06:19:07;;;;;;;;;;;;;;;21.46;65.81;102325.44;7282511;19;152008;-49
2021/08/29 06:21:33;;;;;;;;;;;;;;;21.46;65.71;102326.28;7280389;19;153317;-49
2021/08/29 06:24:00;;;;;;;;;;;;;;;21.45;65.86;102330.19;7289510;19;152468;-50
2021/08/29 06:26:27;;;;;;;;;;;;;;;21.46;65.74;102320.66;7283772;19;153437;-49
2021/08/29 06:28:54;;;;;;;;;;;;;;;21.46;65.96;102323.47;7282096;19;153994;-49
2021/08/29 06:31:20;;;;;;;;;;;;;;;21.45;65.65;102316.13;7282323;19;151578;-50
2021/08/29 06:33:47;;;;;;;;;;;;;;;21.44;65.61;102319.25;7283841;19;152620;-49
2021/08/29 06:36:14;;;;;;;;;;;;;;;21.45;65.62;102318.97;7281062;19;154133;-50
2021/08/29 06:38:41;;;;;;;;;;;;;;;21.46;65.79;102309.41;7282863;19;151854;-50
2021/08/29 06:41:08;;;;;;;;;;;;;;;21.46;65.87;102315.03;7278763;19;153718;-49
2021/08/29 06:43:34;;;;;;;;;;;;;;;21.46;65.73;102319.81;7280363;19;152437;-50
2021/08/29 06:46:01;;;;;;;;;;;;;;;21.46;65.94;102320.66;7289535;19;151823;-50
2021/08/29 06:48:28;;;;;;;;;;;;;;;21.46;65.92;102320.66;7281574;19;154076;-50
2021/08/29 06:50:55;;;;;;;;;;;;;;;21.46;65.56;102322.63;7281236;19;151864;-50
2021/08/29 06:53:22;;;;;;;;;;;;;;;21.46;65.71;102323.47;7280176;19;152951;-50
2021/08/29 06:55:48;;;;;;;;;;;;;;;21.46;65.59;102319.81;7288361;19;152945;-50
2021/08/29 06:58:15;;;;;;;;;;;;;;;21.46;65.59;102317.84;7285485;19;153840;-50
2021/08/29 07:00:42;;;;;;;;;;;;;;;21.47;65.94;102315.88;7289844;19;153559;-49
2021/08/29 07:03:09;;;;;;;;;;;;;;;21.47;65.69;102324.31;7285878;19;154449;-50
2021/08/29 07:05:42;;;;;;;;;;;;;;;21.46;65.63;102314.19;7287681;19;152578;-50
2021/08/29 07:08:08;;;;;;;;;;;;;;;21.47;65.49;102313.91;7294922;19;152361;-49
2021/08/29 07:10:35;;;;;;;;;;;;;;;21.47;65.70;102313.91;7288480;19;151869;-50
2021/08/29 07:13:02;;;;;;;;;;;;;;;21.44;65.87;102317.25;7289467;19;153293;-50
2021/08/29 07:15:30;;;;;;;;;;;;;;;21.47;65.79;102311.09;7283721;19;154349;-50
2021/08/29 07:17:57;;;;;;;;;;;;;;;21.45;65.65;102310.53;7288879;19;151657;-50
2021/08/29 07:20:23;;;;;;;;;;;;;;;21.44;65.72;102311.63;7286736;19;152657;-50
2021/08/29 07:22:53;;;;;;;;;;;;;;;21.45;65.58;102302.09;7286301;19;153994;-50
2021/08/29 07:25:20;;;;;;;;;;;;;;;21.45;65.60;102299.28;7288653;19;153783;-50
2021/08/29 07:27:47;;;;;;;;;;;;;;;21.46;65.40;102302.94;7289175;19;153347;-49
2021/08/29 07:30:14;;;;;;;;;;;;;;;21.45;65.66;102295.63;7292190;19;153968;-50
2021/08/29 07:32:41;;;;;;;;;;;;;;;21.46;65.79;102305.75;7287374;19;152609;-51
2021/08/29 07:35:08;;;;;;;;;;;;;;;21.45;65.83;102299.28;7285992;19;152545;-50
2021/08/29 07:37:34;;;;;;;;;;;;;;;21.45;65.91;102312.47;7289583;19;152707;-50
2021/08/29 07:40:02;;;;;;;;;;;;;;;21.47;65.73;102313.91;7287133;19;152880;-50
2021/08/29 07:42:29;;;;;;;;;;;;;;;21.46;65.75;102306.59;7285976;19;153808;-50
2021/08/29 07:44:55;;;;;;;;;;;;;;;21.47;65.77;102310.25;7289153;19;151990;-50
2021/08/29 07:47:22;;;;;;;;;;;;;;;21.47;66.12;102315.88;7289359;19;153573;-50
2021/08/29 07:49:49;;;;;;;;;;;;;;;21.45;65.75;102316.13;7285922;19;153987;-50
2021/08/29 07:52:16;;;;;;;;;;;;;;;21.46;65.64;102312.22;7295090;19;152430;-50
2021/08/29 07:54:42;;;;;;;;;;;;;;;21.44;65.72;102314.44;7284248;19;152760;-50
2021/08/29 07:57:09;;;;;;;;;;;;;;;21.45;65.79;102310.53;7287365;19;151694;-50
2021/08/29 07:59:37;;;;;;;;;;;;;;;21.46;65.80;102309.41;7283993;19;152642;-50
2021/08/29 08:02:04;;;;;;;;;;;;;;;21.46;65.61;102312.22;7284379;19;154351;-50
2021/08/29 08:04:31;;;;;;;;;;;;;;;21.45;65.80;102307.72;7286879;19;151896;-50
2021/08/29 08:06:57;;;;;;;;;;;;;;;21.46;66.11;102311.38;7282381;19;153269;-50
2021/08/29 08:09:24;;;;;;;;;;;;;;;21.48;66.18;102312.78;7285093;19;154070;-50
2021/08/29 08:11:51;;;;;;;;;;;;;;;21.52;66.07;102307.44;7294289;19;151997;-50
2021/08/29 08:14:18;;;;;;;;;;;;;;;21.49;66.40;102307.97;7286802;19;153393;-50
2021/08/29 08:16:47;;;;;;;;;;;;;;;21.48;66.03;102304.34;7285619;19;152029;-50
2021/08/29 08:19:14;;;;;;;;;;;;;;;21.46;65.90;102312.22;7284330;19;151653;-50
2021/08/29 08:21:41;;;;;;;;;;;;;;;21.45;65.78;102302.09;7282609;19;154322;-50
2021/08/29 08:24:08;;;;;;;;;;;;;;;21.45;66.01;102316.13;7283619;19;151889;-50
2021/08/29 08:26:34;;;;;;;;;;;;;;;21.45;65.80;102318.97;7286824;19;152093;-50
2021/08/29 08:29:01;;;;;;;;;;;;;;;21.48;66.00;102318.41;7283200;19;154024;-50
2021/08/29 08:31:28;;;;;;;;;;;;;;;21.50;65.96;102315.31;7280983;19;152085;-50
2021/08/29 08:33:55;;;;;;;;;;;;;;;21.52;66.28;102313.91;7289306;19;153062;-49
2021/08/29 08:36:21;;;;;;;;;;;;;;;21.58;66.32;102320.34;7283360;19;151881;-50
2021/08/29 08:38:48;;;;;;;;;;;;;;;21.61;65.58;102315.03;7285100;19;153350;-50
2021/08/29 08:41:17;;;;;;;;;;;;;;;21.63;66.02;102312.75;7278989;19;153775;-50
2021/08/29 08:43:44;;;;;;;;;;;;;;;21.65;66.37;102312.47;7283036;19;151980;-50
2021/08/29 08:46:13;;;;;;;;;;;;;;;21.68;66.22;102314.72;7284137;19;152709;-50
2021/08/29 08:48:40;;;;;;;;;;;;;;;21.72;66.29;102319.50;7282589;19;152544;-50
2021/08/29 08:51:10;;;;;;;;;;;;;;;21.75;66.31;102312.47;7282153;19;152713;-50
2021/08/29 08:53:39;;;;;;;;;;;;;;;21.81;66.09;102319.75;7278757;19;152455;-50
2021/08/29 08:56:06;;;;;;;;;;;;;;;21.86;65.73;102316.94;7288840;19;154243;-50
2021/08/29 08:58:39;;;;;;;;;;;;;;;21.92;65.47;102318.63;7282056;19;153352;-49
2021/08/29 09:01:07;;;;;;;;;;;;;;;21.97;65.59;102318.66;7280308;19;154966;-50
2021/08/29 09:03:36;;;;;;;;;;;;;;;22.02;65.46;102315.84;7281443;19;152069;-50
2021/08/29 09:06:04;;;;;;;;;;;;;;;22.06;64.83;102313.28;7284034;19;153213;-50
2021/08/29 09:08:31;;;;;;;;;;;;;;;22.11;64.95;102314.13;7280186;19;154002;-50
2021/08/29 09:10:58;;;;;;;;;;;;;;;22.16;64.35;102311.28;7283243;19;152227;-50
2021/08/29 09:13:25;;;;;;;;;;;;;;;22.21;64.37;102313.25;7280890;19;153727;-50
2021/08/29 09:16:12;;;;;;;;;;;;;;;22.26;63.97;102318.03;7282141;19;152767;-50
2021/08/29 09:18:49;;;;;;;;;;;;;;;22.31;64.15;102317.97;7289534;19;152376;-49
2021/08/29 09:21:20;;;;;;;;;;;;;;;22.36;63.47;102316.00;7281270;19;153433;-51
2021/08/29 09:23:47;;;;;;;;;;;;;;;22.38;63.61;102310.94;7282197;19;151878;-50
2021/08/29 09:26:15;;;;;;;;;;;;;;;22.41;63.30;102310.34;7285392;19;151844;-50
2021/08/29 09:28:42;;;;;;;;;;;;;;;22.45;62.92;102317.06;7283216;19;153166;-50
2021/08/29 09:31:09;;;;;;;;;;;;;;;22.48;62.55;102310.88;7286393;19;153131;-50
2021/08/29 09:33:36;;;;;;;;;;;;;;;22.52;62.64;102312.00;7284456;19;152043;-50
2021/08/29 09:36:03;;;;;;;;;;;;;;;22.54;62.60;102314.50;7284622;19;154037;-50
2021/08/29 09:38:36;;;;;;;;;;;;;;;22.56;62.13;102310.28;7283562;19;152429;-50
2021/08/29 09:41:03;;;;;;;;;;;;;;;22.58;62.33;102313.63;7288082;19;153284;-50
2021/08/29 09:43:34;;;;;;;;;;;;;;;22.61;61.95;102317.88;7284817;19;151826;-50
2021/08/29 09:46:08;;;;;;;;;;;;;;;22.63;61.98;102316.44;7282718;19;154215;-50
2021/08/29 09:48:35;;;;;;;;;;;;;;;22.66;62.11;102317.00;7283629;19;153983;-50
2021/08/29 09:51:02;;;;;;;;;;;;;;;22.68;61.65;102312.75;7285128;19;152207;-50
2021/08/29 09:53:40;;;;;;;;;;;;;;;22.69;62.01;102317.25;7281825;19;152511;-50
2021/08/29 09:56:21;;;;;;;;;;;;;;;22.73;61.76;102314.72;7282294;19;153278;-50
2021/08/29 09:58:48;;;;;;;;;;;;;;;22.73;61.77;102320.34;7282517;19;151882;-50
2021/08/29 10:01:16;;;;;;;;;;;;;;;22.77;61.90;102313.00;7283976;19;153643;-53
2021/08/29 10:03:44;;;;;;;;;;;;;;;22.78;62.01;102314.69;7290326;19;154081;-49
2021/08/29 10:06:12;;;;;;;;;;;;;;;22.78;62.20;102314.69;7284528;19;153284;-50
2021/08/29 10:08:42;;;;;;;;;;;;;;;22.81;61.57;102308.47;7280338;19;152915;-50
2021/08/29 10:11:09;;;;;;;;;;;;;;;22.76;61.41;102312.16;7284070;19;151819;-50
2021/08/29 10:13:37;;;;;;;;;;;;;;;22.79;60.71;102310.75;7282231;19;152976;-53
2021/08/29 10:16:05;;;;;;;;;;;;;;;22.81;60.66;102314.09;7281984;19;153522;-49
2021/08/29 10:18:38;;;;;;;;;;;;;;;22.78;60.12;102304.28;7282844;19;151793;-50
2021/08/29 10:21:06;;;;;;;;;;;;;;;22.79;59.38;102303.16;7279001;19;152603;-50
2021/08/29 10:23:33;;;;;;;;;;;;;;;22.81;59.84;102303.69;7286602;19;152545;-50
2021/08/29 10:26:02;;;;;;;;;;;;;;;22.82;59.56;102308.19;7282991;19;153495;-50
2021/08/29 10:28:34;;;;;;;;;;;;;;;22.82;59.61;102310.16;7281920;19;153800;-50
2021/08/29 10:31:02;;;;;;;;;;;;;;;22.84;59.45;102313.53;7290885;19;152304;-50
2021/08/29 10:33:29;;;;;;;;;;;;;;;22.84;59.67;102307.91;7290699;19;152329;-49
2021/08/29 10:35:56;;;;;;;;;;;;;;;;;;7287261;19;153288;-50
2021/08/29 10:38:23;;;;;;;;;;;;;;;22.92;59.09;102307.28;7288062;19;160206;-50
2021/08/29 10:40:51;;;;;;;;;;;;;;;22.91;59.20;102312.06;7288641;19;154351;-50
2021/08/29 10:43:18;;;;;;;;;;;;;;;22.95;59.24;102306.69;7287110;19;154056;-50
2021/08/29 10:45:45;;;;;;;;;;;;;;;22.98;59.25;102306.97;7297454;19;151619;-49
2021/08/29 10:48:15;;;;;;;;;;;;;;;23.01;59.36;102309.19;7287430;19;154154;-50
2021/08/29 10:50:45;;;;;;;;;;;;;;;22.99;59.47;102303.00;7289431;19;151659;-50
2021/08/29 10:53:26;;;;;;;;;;;;;;;23.00;59.53;102306.66;7289131;19;153025;-50
2021/08/29 10:56:13;;;;;;;;;;;;;;;22.97;59.58;102301.63;7288354;19;152935;-50
2021/08/29 10:58:40;;;;;;;;;;;;;;;23.03;59.53;102303.28;7289414;19;152036;-50
2021/08/29 11:01:25;;;;;;;;;;;;;;;23.02;59.57;102298.75;7287554;19;153291;-50
2021/08/29 11:03:53;;;;;;;;;;;;;;;23.00;59.46;102301.03;7286711;19;154194;-50
2021/08/29 11:06:38;;;;;;;;;;;;;;;23.00;59.68;102309.47;7287928;19;151745;-50
2021/08/29 11:09:24;;;;;;;;;;;;;;;22.95;60.02;102299.09;7295491;19;153318;-50
2021/08/29 11:11:50;;;;;;;;;;;;;;;22.95;60.02;102303.88;7285142;19;152418;-50
2021/08/29 11:14:36;;;;;;;;;;;;;;;22.93;59.77;102295.72;7289177;19;152567;-50
2021/08/29 11:17:14;;;;;;;;;;;;;;;22.89;59.59;102294.63;7285032;19;152318;-50
2021/08/29 11:19:45;;;;;;;;;;;;;;;22.89;59.89;102299.41;7289114;19;152004;-50
2021/08/29 11:22:15;;;;;;;;;;;;;;;22.89;60.04;102300.28;7287438;19;151801;-50
2021/08/29 11:24:53;;;;;;;;;;;;;;;22.89;59.82;102296.59;7286644;19;152578;-50
2021/08/29 11:27:36;;;;;;;;;;;;;;;22.87;59.75;102298.84;7287299;19;151713;-50
2021/08/29 11:30:02;;;;;;;;;;;;;;;;;;7287534;19;153395;-50
2021/08/29 11:32:30;;;;;;;;;;;;;;;22.85;59.67;102295.50;7292324;19;183207;-50
2021/08/29 11:35:12;;;;;;;;;;;;;;;22.83;59.73;102306.22;7288347;19;153452;-49
2021/08/29 11:37:39;;;;;;;;;;;;;;;22.82;59.55;102301.69;7287615;19;152459;-49
2021/08/29 11:40:07;;;;;;;;;;;;;;;22.82;59.88;102304.53;7285557;19;151816;-50
2021/08/29 11:42:40;;;;;;;;;;;;;;;22.81;59.83;102303.69;7287278;19;152266;-50
2021/08/29 11:45:11;;;;;;;;;;;;;;;22.79;59.49;102300.31;7284860;19;152575;-50
2021/08/29 11:47:38;;;;;;;;;;;;;;;22.81;59.62;102300.00;7289410;19;151792;-50
2021/08/29 11:50:07;;;;;;;;;;;;;;;22.79;59.61;102305.13;7286340;19;153163;-50
2021/08/29 11:52:36;;;;;;;;;;;;;;;22.83;59.59;102300.56;7286944;19;153295;-50
2021/08/29 11:55:04;;;;;;;;;;;;;;;22.82;59.55;102296.06;7293794;19;151780;-50
2021/08/29 11:57:31;;;;;;;;;;;;;;;22.82;59.75;102301.69;7287669;19;152597;-49
2021/08/29 12:00:07;;;;;;;;;;;;;;;22.80;59.93;102296.38;7285600;19;152013;-50
2021/08/29 12:02:39;;;;;;;;;;;;;;;22.79;59.76;102288.22;7288438;19;152750;-50
2021/08/29 12:05:16;;;;;;;;;;;;;;;22.78;59.88;102297.78;7284223;19;153477;-50
2021/08/29 12:07:47;;;;;;;;;;;;;;;22.79;59.96;102299.47;7289031;19;153317;-51
2021/08/29 12:10:15;;;;;;;;;;;;;;;22.79;59.63;102297.50;7286509;19;153247;-51
2021/08/29 12:12:44;;;;;;;;;;;;;;;22.80;59.56;102295.53;7285883;19;153306;-51
2021/08/29 12:15:11;;;;;;;;;;;;;;;22.79;59.49;102294.69;7284950;19;151766;-51
2021/08/29 12:17:39;;;;;;;;;;;;;;;22.83;59.67;102289.31;7293899;19;153687;-50
2021/08/29 12:20:08;;;;;;;;;;;;;;;22.82;59.90;102290.44;7284928;19;151668;-50
2021/08/29 12:22:35;;;;;;;;;;;;;;;22.82;59.49;102291.28;7286108;19;153769;-50
2021/08/29 12:25:03;;;;;;;;;;;;;;;22.80;59.91;102289.91;7285680;19;153654;-50
2021/08/29 12:27:30;;;;;;;;;;;;;;;22.78;59.85;102284.53;7286566;19;151929;-50
2021/08/29 12:29:58;;;;;;;;;;;;;;;22.79;60.05;102293.84;7286910;19;152683;-50
2021/08/29 12:32:27;;;;;;;;;;;;;;;22.76;60.18;102286.78;7286632;19;153380;-50
2021/08/29 12:35:01;;;;;;;;;;;;;;;22.76;59.78;102289.63;7285659;19;151846;-50